Time;durP1;ratioP1;P1;durP2;ratioP2;P2;SDS_P1;SDS_P2;PMS_P1;PMS_P2;Temp;Humidity;BMP_temperature;BMP_pressure;BME280_temperature;BME280_humidity;BME280_pressure;Samples;Min_cycle;Max_cycle;Signal;HPM_P1;HPM_P2
2021/05/26 00:00:08;;;;;;;;;5.00;5.00;;;;;15.93;46.12;98981.63;6208523;28;124876;-69
2021/05/26 00:03:10;;;;;;;;;5.00;5.00;;;;;15.84;46.31;98988.59;6210097;28;125511;-69
2021/05/26 00:06:13;;;;;;;;;6.00;5.25;;;;;15.74;46.35;98991.19;6207644;28;124815;-69
2021/05/26 00:09:16;;;;;;;;;5.50;5.50;;;;;15.55;46.30;98968.94;6209618;28;124849;-69
2021/05/26 00:12:21;;;;;;;;;4.00;4.00;;;;;15.76;46.30;98991.75;6212016;28;97483;-69
2021/05/26 00:15:24;;;;;;;;;5.00;5.00;;;;;15.70;46.18;98998.22;6209217;28;125049;-69
2021/05/26 00:18:27;;;;;;;;;5.00;4.00;;;;;15.44;46.42;98975.25;6209888;28;126708;-69
2021/05/26 00:21:30;;;;;;;;;5.00;5.00;;;;;15.53;46.60;98995.56;6207345;28;126159;-69
2021/05/26 00:24:33;;;;;;;;;4.80;4.80;;;;;15.52;46.58;98991.19;6208522;28;125928;-69
2021/05/26 00:27:37;;;;;;;;;5.25;5.00;;;;;15.56;46.53;99003.19;6202546;28;124509;-69
2021/05/26 00:30:45;;;;;;;;;4.00;4.00;;;;;15.59;46.31;99001.84;6197116;28;125200;-69
2021/05/26 00:33:48;;;;;;;;;5.00;5.00;;;;;15.63;46.00;99000.31;6209557;28;124506;-69
2021/05/26 00:36:51;;;;;;;;;4.00;4.00;;;;;15.36;45.68;98964.84;6198718;28;125594;-69
2021/05/26 00:39:53;;;;;;;;;5.00;5.00;;;;;15.59;46.07;99005.41;6199603;28;125449;-69
2021/05/26 00:42:57;;;;;;;;;4.60;4.60;;;;;15.63;46.01;99008.47;6191047;28;126748;-69
2021/05/26 00:46:00;;;;;;;;;4.00;4.00;;;;;15.68;45.92;99013.97;6195399;28;124545;-69
2021/05/26 00:49:03;;;;;;;;;3.50;3.00;;;;;15.65;45.96;99008.19;6203330;28;125138;-69
2021/05/26 00:52:05;;;;;;;;;4.00;3.00;;;;;15.58;45.83;99002.94;6197255;28;126023;-69
2021/05/26 00:55:12;;;;;;;;;4.00;4.00;;;;;15.62;45.69;99009.53;6204603;28;126644;-69
2021/05/26 00:58:16;;;;;;;;;2.40;2.40;;;;;15.63;45.61;99016.59;6187784;28;127329;-69
2021/05/26 01:01:19;;;;;;;;;3.00;3.00;;;;;15.62;45.53;99014.13;6204071;28;126562;-69
2021/05/26 01:04:22;;;;;;;;;3.00;2.00;;;;;15.52;45.71;99017.53;6208686;28;126820;-69
2021/05/26 01:07:35;;;;;;;;;2.00;2.00;;;;;15.43;46.02;99019.84;6208396;28;126467;-69
2021/05/26 01:10:38;;;;;;;;;3.00;3.00;;;;;15.39;46.43;99015.97;6208383;28;125173;-69
2021/05/26 01:13:46;;;;;;;;;4.50;4.00;;;;;15.33;46.42;99016.97;6202224;28;126544;-69
2021/05/26 01:16:51;;;;;;;;;4.00;3.00;;;;;15.32;45.96;99025.34;6199874;28;125093;-69
2021/05/26 01:19:54;;;;;;;;;3.00;3.00;;;;;15.24;46.49;99025.78;6209280;28;126403;-69
2021/05/26 01:23:00;;;;;;;;;3.00;3.00;;;;;15.25;46.43;99033.66;6211850;28;126311;-69
2021/05/26 01:26:09;;;;;;;;;3.00;3.00;;;;;15.23;46.30;99033.09;6209891;28;126468;-69
2021/05/26 01:29:14;;;;;;;;;3.00;3.00;;;;;15.25;45.97;99038.28;6213807;28;125013;-69
2021/05/26 01:32:17;;;;;;;;;5.00;4.00;;;;;15.32;45.65;99041.66;6210533;28;125808;-69
2021/05/26 01:35:22;;;;;;;;;4.00;3.00;;;;;15.30;45.94;99050.03;6184616;28;125242;-69
2021/05/26 01:38:26;;;;;;;;;4.00;4.00;;;;;15.33;45.52;99051.44;6211014;28;125861;-69
2021/05/26 01:41:28;;;;;;;;;4.00;3.00;;;;;15.28;45.84;99048.66;6211690;28;124940;-69
2021/05/26 01:44:34;;;;;;;;;3.50;3.00;;;;;15.31;45.77;99048.16;6210080;28;125065;-69
2021/05/26 01:47:50;;;;;;;;;3.00;3.00;;;;;15.35;45.35;99049.28;6201871;28;124824;-69
2021/05/26 01:50:53;;;;;;;;;2.00;2.00;;;;;15.39;45.20;99050.47;6205927;28;126766;-69
2021/05/26 01:53:59;;;;;;;;;3.00;3.00;;;;;15.38;45.15;99040.66;6211169;28;126342;-69
2021/05/26 01:57:02;;;;;;;;;3.40;3.00;;;;;15.33;45.07;99041.41;6210710;28;127090;-69
2021/05/26 02:00:06;;;;;;;;;3.20;3.20;;;;;15.36;45.21;99035.47;6213744;28;125331;-69
2021/05/26 02:03:21;;;;;;;;;4.00;4.00;;;;;15.40;45.06;99033.06;6206338;28;125991;-69
2021/05/26 02:06:25;;;;;;;;;3.00;3.00;;;;;15.39;44.98;99034.16;6210426;28;126095;-69
2021/05/26 02:09:30;;;;;;;;;2.00;2.00;;;;;15.24;45.02;99031.22;6210424;28;125893;-69
2021/05/26 02:12:33;;;;;;;;;4.00;4.00;;;;;15.18;45.10;99030.31;6209890;28;126216;-69
2021/05/26 02:15:37;;;;;;;;;2.50;2.50;;;;;15.24;45.04;99042.06;6210267;28;125763;-69
2021/05/26 02:18:43;;;;;;;;;3.00;3.00;;;;;15.27;44.88;99055.16;6208179;28;124709;-69
2021/05/26 02:21:46;;;;;;;;;4.00;4.00;;;;;15.28;44.91;99052.19;6203582;28;123813;-69
2021/05/26 02:24:50;;;;;;;;;3.00;3.00;;;;;15.23;44.80;99054.84;6203526;28;125177;-69
2021/05/26 02:27:52;;;;;;;;;3.00;3.00;;;;;15.27;44.78;99064.13;6202976;28;126149;-69
2021/05/26 02:30:58;;;;;;;;;3.00;3.00;;;;;15.31;44.53;99062.56;6203892;28;126190;-69
2021/05/26 02:34:04;;;;;;;;;2.40;2.00;;;;;15.34;44.67;99059.38;6207829;28;125520;-69
2021/05/26 02:37:07;;;;;;;;;2.00;2.00;;;;;15.30;44.62;99058.19;6207010;28;124208;-69
2021/05/26 02:40:12;;;;;;;;;3.00;3.00;;;;;15.33;44.55;99057.72;6209232;28;126231;-69
2021/05/26 02:43:15;;;;;;;;;1.75;1.75;;;;;15.30;44.47;99063.63;6209280;28;124642;-69
2021/05/26 02:46:17;;;;;;;;;2.20;2.20;;;;;15.32;44.34;99069.63;6208947;28;126319;-69
2021/05/26 02:49:20;;;;;;;;;3.00;3.00;;;;;15.30;44.30;99063.63;6205974;28;126319;-69
2021/05/26 02:52:23;;;;;;;;;3.00;3.00;;;;;15.34;44.27;99051.22;6203272;28;126298;-69
2021/05/26 02:55:37;;;;;;;;;2.00;2.00;;;;;15.40;44.24;99054.81;6206745;28;126112;-69
2021/05/26 02:58:59;;;;;;;;;3.00;3.00;;;;;15.34;44.12;99044.94;6211024;28;126459;-69
2021/05/26 03:02:25;;;;;;;;;2.00;2.00;;;;;15.49;43.93;99053.34;6180167;28;127099;-69
2021/05/26 03:05:37;;;;;;;;;1.00;1.00;;;;;15.53;43.36;99052.63;6185858;28;125394;-69
2021/05/26 03:08:40;;;;;;;;;2.75;2.75;;;;;15.42;43.52;99044.53;6209996;28;124702;-69
2021/05/26 03:11:44;;;;;;;;;2.00;2.00;;;;;15.56;43.34;99062.97;6200180;28;126342;-69
2021/05/26 03:15:00;;;;;;;;;3.00;2.00;;;;;15.63;43.21;99053.84;6196933;28;124618;-69
2021/05/26 03:18:03;;;;;;;;;2.00;2.00;;;;;15.68;43.07;99071.03;6191110;28;126094;-69
2021/05/26 03:21:06;;;;;;;;;3.00;2.00;;;;;15.75;42.84;99059.97;6206645;28;124022;-69
2021/05/26 03:24:23;;;;;;;;;1.00;1.00;;;;;15.79;42.67;99063.81;6190205;28;125222;-69
2021/05/26 03:27:33;;;;;;;;;4.00;3.00;;;;;15.78;42.71;99067.63;6204432;28;126589;-69
2021/05/26 03:30:36;;;;;;;;;1.00;1.00;;;;;15.71;42.42;99067.81;6198324;28;124827;-68
2021/05/26 03:33:39;;;;;;;;;2.00;2.00;;;;;15.82;42.67;99071.50;6209297;28;126254;-69
2021/05/26 03:36:43;;;;;;;;;2.00;2.00;;;;;15.88;42.23;99074.00;6211513;28;124915;-69
2021/05/26 03:39:46;;;;;;;;;2.40;2.00;;;;;15.95;42.06;99065.69;6211630;28;126016;-69
2021/05/26 03:42:51;;;;;;;;;1.60;1.60;;;;;15.99;41.89;99070.34;6210873;28;126010;-69
2021/05/26 03:46:04;;;;;;;;;3.00;3.00;;;;;16.09;41.85;99083.25;6206809;28;125474;-69
2021/05/26 03:49:08;;;;;;;;;2.60;2.00;;;;;16.13;41.50;99081.69;6180413;28;124507;-69
2021/05/26 03:52:11;;;;;;;;;3.60;2.00;;;;;16.18;41.84;99087.19;6186532;28;125010;-69
2021/05/26 03:55:21;;;;;;;;;2.00;2.00;;;;;16.18;41.32;99095.34;6210236;28;125720;-69
2021/05/26 03:58:26;;;;;;;;;3.00;2.00;;;;;16.28;41.23;99094.66;6176838;28;123766;-69
2021/05/26 04:01:29;;;;;;;;;2.00;2.00;;;;;16.35;41.03;99087.13;6206312;28;126081;-69
2021/05/26 04:04:32;;;;;;;;;3.00;3.00;;;;;16.30;41.25;99087.91;6209094;28;126913;-69
2021/05/26 04:07:40;;;;;;;;;3.00;3.00;;;;;16.34;41.12;99086.31;6207862;28;126225;-69
2021/05/26 04:10:44;;;;;;;;;2.40;2.40;;;;;16.45;41.08;99088.06;6206190;28;124619;-69
2021/05/26 04:14:03;;;;;;;;;2.00;2.00;;;;;16.58;40.75;99092.31;6187516;28;124805;-69
2021/05/26 04:17:28;;;;;;;;;3.00;3.00;;;;;16.68;40.64;99102.50;6221029;28;126445;-69
2021/05/26 04:20:36;;;;;;;;;3.00;3.00;;;;;16.80;40.49;99090.41;6184560;28;124961;-69
2021/05/26 04:23:39;;;;;;;;;3.00;3.00;;;;;16.98;40.48;99093.81;6200220;28;126609;-69
2021/05/26 04:26:42;;;;;;;;;3.00;2.00;;;;;17.09;40.24;99101.84;6204275;28;126667;-69
2021/05/26 04:29:45;;;;;;;;;3.00;3.00;;;;;17.08;39.47;99108.34;6198005;28;126247;-69
2021/05/26 04:32:49;;;;;;;;;2.00;2.00;;;;;17.18;39.79;99107.63;6205162;28;126717;-69
2021/05/26 04:35:53;;;;;;;;;3.00;2.00;;;;;17.20;39.41;99114.44;6204995;28;127008;-69
2021/05/26 04:38:55;;;;;;;;;2.00;2.00;;;;;17.29;39.50;99112.09;6203539;28;126137;-69
2021/05/26 04:41:58;;;;;;;;;3.00;2.00;;;;;17.27;39.20;99111.53;6203438;28;125749;-70
2021/05/26 04:45:02;;;;;;;;;2.00;2.00;;;;;17.28;38.67;99116.72;6200952;28;126411;-70
2021/05/26 04:48:05;;;;;;;;;2.00;2.00;;;;;17.42;38.84;99108.09;6200133;28;125065;-69
2021/05/26 04:51:08;;;;;;;;;3.00;2.80;;;;;17.51;38.52;99106.53;6196181;28;124148;-69
2021/05/26 04:54:11;;;;;;;;;3.00;2.75;;;;;17.58;38.34;99098.97;6201894;28;126444;-70
2021/05/26 04:57:13;;;;;;;;;2.00;2.00;;;;;17.57;38.30;99100.03;6192417;28;124334;-70
2021/05/26 05:00:19;;;;;;;;;3.00;2.40;;;;;17.66;38.51;99098.50;6202712;28;123996;-69
2021/05/26 05:03:21;;;;;;;;;1.00;1.00;;;;;17.74;38.20;99101.53;6198905;28;126581;-69
2021/05/26 05:06:24;;;;;;;;;2.00;1.00;;;;;17.83;38.28;99104.63;6209497;28;126944;-69
2021/05/26 05:09:27;;;;;;;;;1.00;1.00;;;;;18.03;38.25;99107.44;6208293;28;126375;-69
2021/05/26 05:12:29;;;;;;;;;1.75;1.75;;;;;18.05;37.65;99113.47;6211016;28;127189;-70
2021/05/26 05:15:33;;;;;;;;;2.00;1.80;;;;;18.08;37.33;99109.41;6211655;28;125552;-69
2021/05/26 05:18:36;;;;;;;;;1.00;1.00;;;;;18.25;37.85;99101.81;6192236;28;124996;-70
2021/05/26 05:21:39;;;;;;;;;1.00;1.00;;;;;18.30;37.43;99112.78;6212930;28;126640;-70
2021/05/26 05:24:42;;;;;;;;;2.00;2.00;;;;;18.39;37.53;99107.63;6191721;28;123675;-70
2021/05/26 05:27:45;;;;;;;;;2.00;2.00;;;;;18.34;36.65;99105.69;6195561;28;127263;-70
2021/05/26 05:30:48;;;;;;;;;2.40;2.40;;;;;18.51;37.41;99108.22;6201707;28;126745;-69
2021/05/26 05:33:51;;;;;;;;;1.00;1.00;;;;;18.60;37.26;99121.13;6208732;28;125456;-70
2021/05/26 05:36:54;;;;;;;;;1.00;1.00;;;;;18.66;37.56;99113.75;6197878;28;124065;-70
2021/05/26 05:39:57;;;;;;;;;3.00;2.00;;;;;18.77;36.81;99109.13;6205990;28;128596;-70
2021/05/26 05:43:00;;;;;;;;;1.00;1.00;;;;;18.93;36.42;99114.34;6211523;28;125460;-70
2021/05/26 05:46:03;;;;;;;;;3.00;3.00;;;;;19.15;35.54;99114.13;6209182;28;125194;-70
2021/05/26 05:49:06;;;;;;;;;0.80;0.80;;;;;19.25;35.19;99114.16;6197312;28;125982;-70
2021/05/26 05:52:10;;;;;;;;;2.00;2.00;;;;;19.44;34.96;99112.53;6192768;28;124175;-70
2021/05/26 05:55:14;;;;;;;;;2.00;2.00;;;;;19.48;34.48;99118.28;6231567;27;124658;-69
2021/05/26 05:58:22;;;;;;;;;2.00;1.25;;;;;19.60;34.82;99109.75;6191619;28;124744;-70
2021/05/26 06:01:26;;;;;;;;;0.25;0.25;;;;;19.75;34.46;99109.75;6189774;28;125869;-70
2021/05/26 06:04:29;;;;;;;;;2.00;2.00;;;;;19.81;34.02;99112.22;6209987;28;126274;-70
2021/05/26 06:07:31;;;;;;;;;2.00;2.00;;;;;19.96;33.59;99114.09;6207615;28;125008;-68
2021/05/26 06:10:34;;;;;;;;;1.40;1.40;;;;;20.11;34.49;99111.31;6205734;28;125568;-71
2021/05/26 06:13:37;;;;;;;;;1.25;1.25;;;;;20.24;33.52;99107.16;6204349;28;126487;-70
2021/05/26 06:16:41;;;;;;;;;1.00;1.00;;;;;20.29;32.07;99115.38;6202015;28;126926;-71
2021/05/26 06:19:43;;;;;;;;;1.00;1.00;;;;;20.34;32.19;99115.38;6193649;28;125932;-71
2021/05/26 06:22:46;;;;;;;;;1.00;1.00;;;;;20.35;32.13;99110.72;6191678;28;127327;-71
2021/05/26 06:25:49;;;;;;;;;1.00;1.00;;;;;20.47;32.79;99113.97;6185085;28;125314;-71
2021/05/26 06:28:58;;;;;;;;;1.00;1.00;;;;;20.46;32.11;99101.38;6190983;28;126240;-69
2021/05/26 06:32:14;;;;;;;;;1.00;1.00;;;;;20.47;31.99;99097.53;6230596;27;97101;-71
2021/05/26 06:35:17;;;;;;;;;1.00;1.00;;;;;20.42;31.26;99101.13;6209156;28;125180;-71
2021/05/26 06:38:19;;;;;;;;;1.40;1.40;;;;;20.64;31.97;99096.06;6204873;28;126282;-68
2021/05/26 06:41:22;;;;;;;;;1.00;1.00;;;;;20.54;31.33;99098.88;6206562;28;125062;-69
2021/05/26 06:44:25;;;;;;;;;1.50;1.00;;;;;20.60;30.52;99094.19;6204682;28;126529;-70
2021/05/26 06:47:28;;;;;;;;;3.00;2.00;;;;;20.81;30.81;99095.72;6205817;28;125047;-70
2021/05/26 06:50:31;;;;;;;;;2.25;1.00;;;;;20.82;30.53;99094.59;6191132;28;124601;-70
2021/05/26 06:53:34;;;;;;;;;1.00;1.00;;;;;20.88;30.91;99090.72;6205393;28;124256;-70
2021/05/26 06:56:37;;;;;;;;;1.75;1.75;;;;;21.06;30.43;99076.34;6210919;28;125396;-70
2021/05/26 06:59:40;;;;;;;;;2.00;2.00;;;;;21.25;29.79;99081.19;6210244;28;124138;-70
2021/05/26 07:02:43;;;;;;;;;1.20;1.00;;;;;21.35;29.71;99079.19;6207680;28;125094;-70
2021/05/26 07:05:46;;;;;;;;;1.60;1.60;;;;;21.47;28.80;99082.34;6210744;28;124918;-70
2021/05/26 07:08:49;;;;;;;;;2.00;1.50;;;;;21.57;28.75;99095.97;6208332;28;128781;-70
2021/05/26 07:11:52;;;;;;;;;1.00;1.00;;;;;21.73;29.23;99071.97;6209257;28;126833;-70
2021/05/26 07:15:02;;;;;;;;;1.00;1.00;;;;;21.53;28.58;99077.63;6209577;28;124570;-70
2021/05/26 07:18:07;;;;;;;;;1.00;1.00;;;;;21.56;28.38;99066.91;6193042;28;124167;-70
2021/05/26 07:21:09;;;;;;;;;1.40;1.40;;;;;21.84;28.02;99065.28;6209119;28;124691;-70
2021/05/26 07:24:12;;;;;;;;;1.25;1.00;;;;;21.97;28.34;99064.59;6210156;28;126869;-70
2021/05/26 07:27:15;;;;;;;;;1.00;1.00;;;;;22.17;27.69;99076.44;6192939;28;124947;-70
2021/05/26 07:30:19;;;;;;;;;1.75;1.00;;;;;22.06;28.28;99066.69;6209490;28;125252;-70
2021/05/26 07:33:22;;;;;;;;;1.00;1.00;;;;;22.13;27.91;99070.72;6207964;28;126625;-70
2021/05/26 07:36:25;;;;;;;;;1.00;1.00;;;;;22.28;27.64;99054.06;6207807;28;125799;-70
2021/05/26 07:39:34;;;;;;;;;2.80;2.80;;;;;22.56;26.63;99062.50;6209083;28;126238;-70
2021/05/26 07:42:39;;;;;;;;;1.00;1.00;;;;;22.81;26.68;99056.69;6206824;28;124083;-71
2021/05/26 07:45:47;;;;;;;;;2.40;2.40;;;;;23.16;26.48;99063.56;6208415;28;125787;-70
2021/05/26 07:49:01;;;;;;;;;2.00;2.00;;;;;23.40;26.71;99057.94;6189447;28;126178;-70
2021/05/26 07:52:06;;;;;;;;;2.00;2.00;;;;;23.58;26.41;99066.16;6218287;28;125856;-70
2021/05/26 07:55:09;;;;;;;;;2.00;2.00;;;;;23.73;26.22;99049.38;6208452;28;125966;-70
2021/05/26 07:58:12;;;;;;;;;2.75;2.00;;;;;23.74;23.80;99055.69;6207112;28;126147;-70
2021/05/26 08:01:16;;;;;;;;;1.67;1.67;;;;;23.68;24.19;99052.22;6205901;28;126340;-70
2021/05/26 08:04:20;;;;;;;;;3.00;3.00;;;;;23.77;24.19;99054.25;6206735;28;124024;-70
2021/05/26 08:07:23;;;;;;;;;2.00;1.00;;;;;23.81;24.28;99052.53;6207348;28;125248;-71
2021/05/26 08:10:26;;;;;;;;;2.00;2.00;;;;;23.85;24.41;99039.81;6208820;28;126088;-70
2021/05/26 08:13:28;;;;;;;;;2.00;1.00;;;;;23.92;23.86;99052.03;6208712;28;126666;-71
2021/05/26 08:16:31;;;;;;;;;1.00;1.00;;;;;23.98;23.44;99050.81;6204852;28;125234;-70
2021/05/26 08:19:35;;;;;;;;;1.00;1.00;;;;;24.04;24.21;99040.53;6207033;28;125299;-71
2021/05/26 08:22:38;;;;;;;;;2.00;2.00;;;;;24.28;23.54;99043.91;6207567;28;125209;-70
2021/05/26 08:25:42;;;;;;;;;1.00;1.00;;;;;24.51;23.04;99033.75;6208446;28;125156;-71
2021/05/26 08:28:45;;;;;;;;;2.00;2.00;;;;;24.85;23.72;99045.13;6207318;28;126934;-71
2021/05/26 08:31:47;;;;;;;;;3.00;2.00;;;;;25.21;22.89;99041.53;6207991;28;126513;-71
2021/05/26 08:34:53;;;;;;;;;1.00;1.00;;;;;25.25;22.36;99035.06;6206415;28;125373;-70
2021/05/26 08:37:55;;;;;;;;;2.60;2.60;;;;;25.49;22.37;99036.69;6205626;28;126074;-70
2021/05/26 08:40:58;;;;;;;;;2.00;2.00;;;;;25.75;21.75;99035.72;6207476;28;126145;-70
2021/05/26 08:44:01;;;;;;;;;2.00;2.00;;;;;25.81;21.41;99030.84;6206901;28;125158;-70
2021/05/26 08:47:04;;;;;;;;;2.00;2.00;;;;;25.90;21.29;99020.69;6207146;28;125270;-71
2021/05/26 08:50:09;;;;;;;;;1.60;1.00;;;;;25.78;21.16;99020.47;6205526;28;125706;-71
2021/05/26 08:53:12;;;;;;;;;1.00;1.00;;;;;25.82;21.96;99033.31;6207371;28;125066;-70
2021/05/26 08:56:15;;;;;;;;;2.00;2.00;;;;;25.68;21.56;99045.59;6206183;28;125056;-70
2021/05/26 08:59:18;;;;;;;;;2.00;2.00;;;;;25.75;21.76;99029.38;6209286;28;124914;-71
2021/05/26 09:02:20;;;;;;;;;1.00;1.00;;;;;25.98;22.00;99033.72;6209452;28;126437;-70
2021/05/26 09:05:25;;;;;;;;;1.60;1.60;;;;;26.36;21.78;99020.19;6208837;28;126805;-71
2021/05/26 09:08:28;;;;;;;;;2.00;2.00;;;;;26.52;21.15;99015.84;6194460;28;123661;-71
2021/05/26 09:11:33;;;;;;;;;2.00;2.00;;;;;26.61;21.36;99010.31;6203064;28;126470;-70
2021/05/26 09:14:38;;;;;;;;;1.00;1.00;;;;;26.85;20.82;99026.44;6206206;28;126000;-70
2021/05/26 09:17:41;;;;;;;;;1.20;1.00;;;;;27.04;20.83;99016.69;6202524;28;123995;-70
2021/05/26 09:20:46;;;;;;;;;1.00;1.00;;;;;26.85;20.34;99009.81;6205612;28;124630;-71
2021/05/26 09:23:49;;;;;;;;;2.00;2.00;;;;;26.59;20.35;98977.44;6205850;28;124791;-69
2021/05/26 09:26:53;;;;;;;;;1.00;1.00;;;;;26.56;20.41;98999.41;6207721;28;124270;-71
2021/05/26 09:29:56;;;;;;;;;5.00;2.20;;;;;26.37;21.07;99008.00;6207293;28;126374;-71
2021/05/26 09:32:59;;;;;;;;;2.80;2.20;;;;;26.20;21.24;99002.38;6205358;28;125393;-71
2021/05/26 09:36:18;;;;;;;;;2.00;1.20;;;;;26.24;20.88;98997.91;6209969;28;126282;-71
2021/05/26 09:39:20;;;;;;;;;2.00;2.00;;;;;26.21;21.77;98998.50;6202554;28;123325;-70
2021/05/26 09:42:35;;;;;;;;;2.00;2.00;;;;;26.25;20.39;98967.16;6210955;28;124023;-70
2021/05/26 09:45:39;;;;;;;;;1.00;1.00;;;;;26.48;19.06;98995.50;6212996;28;126455;-70
2021/05/26 09:49:01;;;;;;;;;2.00;2.00;;;;;26.36;19.21;99005.56;6212188;28;126434;-71
2021/05/26 09:52:04;;;;;;;;;1.00;1.00;;;;;26.39;19.03;98985.56;6210348;28;123808;-71
2021/05/26 09:55:20;;;;;;;;;2.00;2.00;;;;;26.24;19.91;98987.63;6212234;28;126104;-71
2021/05/26 09:58:22;;;;;;;;;3.00;2.00;;;;;26.27;19.79;98981.47;6212772;28;126291;-71
2021/05/26 10:01:25;;;;;;;;;2.00;2.00;;;;;26.42;20.21;98982.16;6209926;28;127072;-71
2021/05/26 10:04:28;;;;;;;;;2.00;2.00;;;;;26.72;20.42;98983.97;6213271;28;126313;-71
2021/05/26 10:07:56;;;;;;;;;0.00;0.00;;;;;26.95;19.68;98985.44;6213129;28;126133;-70
2021/05/26 10:11:00;;;;;;;;;3.00;2.00;;;;;27.07;19.22;98968.97;6203694;28;124626;-70
2021/05/26 10:14:07;;;;;;;;;2.40;2.00;;;;;27.25;19.40;98969.78;6205815;28;124000;-70
2021/05/26 10:17:17;;;;;;;;;2.00;2.00;;;;;27.38;19.88;98965.97;6228314;28;125776;-71
2021/05/26 10:20:22;;;;;;;;;1.00;0.40;;;;;27.28;19.74;98952.50;6211191;28;126472;-71
2021/05/26 10:23:27;;;;;;;;;2.00;1.00;;;;;27.10;19.70;98946.19;6195541;28;126381;-70
2021/05/26 10:26:55;;;;;;;;;3.50;3.00;;;;;27.33;18.47;98946.78;6212793;28;125819;-70
2021/05/26 10:29:58;;;;;;;;;2.00;2.00;;;;;27.13;18.66;98939.19;6189944;28;125433;-71
2021/05/26 10:33:02;;;;;;;;;3.00;2.00;;;;;27.46;18.91;98931.13;6209793;28;125209;-72
2021/05/26 10:36:08;;;;;;;;;1.00;1.00;;;;;27.71;19.04;98943.28;6199165;28;125977;-72
2021/05/26 10:39:11;;;;;;;;;0.20;0.20;;;;;27.95;19.25;98926.84;6218632;28;126005;-72
2021/05/26 10:42:26;;;;;;;;;2.00;2.00;;;;;28.16;17.45;98936.00;6212737;28;125086;-73
2021/05/26 10:45:35;;;;;;;;;2.00;2.00;;;;;27.70;16.67;98883.47;6212850;28;124889;-74
2021/05/26 10:49:03;;;;;;;;;1.00;1.00;;;;;27.90;16.25;98933.38;6211176;28;126036;-73
2021/05/26 10:52:10;;;;;;;;;2.00;2.00;;;;;28.13;16.96;98925.59;6207347;28;127514;-71
2021/05/26 10:55:34;;;;;;;;;2.00;2.00;;;;;28.30;17.24;98928.25;6210475;28;125647;-73
2021/05/26 10:58:42;;;;;;;;;2.20;2.20;;;;;28.37;16.79;98920.22;6194228;28;125922;-72
2021/05/26 11:02:08;;;;;;;;;2.00;2.00;;;;;28.55;17.85;98918.09;6210559;28;125907;-73
2021/05/26 11:05:35;;;;;;;;;1.25;1.25;;;;;28.59;17.40;98912.72;6197111;28;125871;-74
2021/05/26 11:08:43;;;;;;;;;1.40;1.00;;;;;28.51;17.93;98919.13;6204084;28;124632;-72
2021/05/26 11:11:48;;;;;;;;;3.00;2.00;;;;;28.67;17.79;98903.47;6202385;28;127040;-72
2021/05/26 11:14:54;;;;;;;;;2.00;2.00;;;;;28.55;17.45;98907.00;6208398;28;124679;-74
2021/05/26 11:18:08;;;;;;;;;1.00;1.00;;;;;28.36;18.10;98904.72;6201592;28;124425;-73
2021/05/26 11:21:15;;;;;;;;;1.00;1.00;;;;;28.26;18.37;98894.03;6209097;28;124900;-74
2021/05/26 11:24:19;;;;;;;;;2.00;2.00;;;;;28.14;17.30;98893.16;6207234;28;126416;-73
2021/05/26 11:27:26;;;;;;;;;1.00;1.00;;;;;27.77;17.92;98889.28;6208901;28;124856;-72
2021/05/26 11:30:29;;;;;;;;;1.00;1.00;;;;;27.86;17.83;98892.81;6211305;28;125932;-72
2021/05/26 11:33:33;;;;;;;;;1.00;1.00;;;;;27.95;18.51;98893.59;6200351;28;126879;-74
2021/05/26 11:36:43;;;;;;;;;1.00;1.00;;;;;27.71;18.49;98874.00;6208918;28;125895;-74
2021/05/26 11:39:45;;;;;;;;;1.00;1.00;;;;;27.89;18.28;98883.84;6209471;28;124840;-73
2021/05/26 11:42:49;;;;;;;;;2.00;2.00;;;;;27.80;18.50;98880.31;6197533;28;125644;-73
2021/05/26 11:46:05;;;;;;;;;2.00;2.00;;;;;28.00;18.89;98874.00;6216815;28;126249;-73
2021/05/26 11:49:11;;;;;;;;;1.00;1.00;;;;;27.73;19.28;98828.19;6203638;28;126255;-72
2021/05/26 11:52:14;;;;;;;;;2.00;2.00;;;;;28.11;19.61;98874.38;6201227;28;125934;-73
2021/05/26 11:55:18;;;;;;;;;2.00;2.00;;;;;28.20;19.03;98847.47;6208980;28;126161;-73
2021/05/26 11:58:30;;;;;;;;;3.00;2.00;;;;;28.68;18.85;98856.00;6201043;28;125871;-73
2021/05/26 12:01:34;;;;;;;;;2.00;2.00;;;;;28.83;18.86;98849.81;6201867;28;124696;-73
2021/05/26 12:04:45;;;;;;;;;2.00;2.00;;;;;29.01;18.76;98850.44;6206618;28;126164;-73
2021/05/26 12:07:57;;;;;;;;;2.00;2.00;;;;;29.07;18.40;98843.50;6198025;28;126736;-73
2021/05/26 12:11:02;;;;;;;;;2.00;2.00;;;;;29.15;18.05;98850.09;6206350;28;128815;-74
2021/05/26 12:14:05;;;;;;;;;2.00;2.00;;;;;29.31;18.67;98839.97;6201831;28;125802;-73
2021/05/26 12:17:09;;;;;;;;;2.00;2.00;;;;;29.56;18.95;98843.56;6203161;28;125059;-73
2021/05/26 12:20:15;;;;;;;;;1.80;1.00;;;;;29.62;19.11;98836.59;6200773;28;125336;-73
2021/05/26 12:23:35;;;;;;;;;2.00;2.00;;;;;29.45;17.68;98831.31;6201567;28;125987;-74
2021/05/26 12:26:39;;;;;;;;;2.00;1.60;;;;;29.61;17.23;98829.44;6201092;28;124583;-72
2021/05/26 12:29:44;;;;;;;;;1.00;1.00;;;;;29.56;18.24;98826.91;6190296;28;125341;-71
2021/05/26 12:32:48;;;;;;;;;2.60;2.60;;;;;29.40;17.02;98801.78;6208831;28;126699;-72
2021/05/26 12:36:02;;;;;;;;;2.00;2.00;;;;;29.37;16.58;98815.56;6204303;28;124499;-71
2021/05/26 12:39:06;;;;;;;;;1.60;1.60;;;;;29.21;18.24;98805.13;6195281;28;126188;-71
2021/05/26 12:42:09;;;;;;;;;2.00;2.00;;;;;29.31;19.01;98809.44;6198355;28;126121;-71
2021/05/26 12:45:20;;;;;;;;;2.00;2.00;;;;;29.40;19.02;98800.97;6196519;28;126533;-72
2021/05/26 12:48:29;;;;;;;;;3.00;2.00;;;;;29.44;17.28;98785.25;6194129;28;123685;-72
2021/05/26 12:51:40;;;;;;;;;2.00;2.00;;;;;29.02;17.99;98784.63;6186325;28;126050;-72
2021/05/26 12:54:44;;;;;;;;;1.80;1.80;;;;;28.82;17.96;98776.06;6188622;28;126210;-72
2021/05/26 12:57:47;;;;;;;;;2.00;2.00;;;;;29.12;18.84;98790.53;6199521;28;125218;-71
2021/05/26 13:00:51;;;;;;;;;3.00;3.00;;;;;29.17;18.85;98789.50;6191099;28;127175;-71
2021/05/26 13:03:54;;;;;;;;;2.00;2.00;;;;;29.17;18.79;98778.41;6200560;28;126406;-71
2021/05/26 13:06:56;;;;;;;;;3.00;3.00;;;;;29.28;18.46;98771.22;6193585;28;126457;-71
2021/05/26 13:10:14;;;;;;;;;1.80;1.80;;;;;29.39;18.42;98766.03;6200305;28;125492;-70
2021/05/26 13:13:24;;;;;;;;;2.00;1.00;;;;;29.43;17.17;98762.22;6193151;28;122986;-72
2021/05/26 13:16:28;;;;;;;;;1.00;1.00;;;;;29.40;17.13;98754.59;6194758;28;127178;-72
2021/05/26 13:19:34;;;;;;;;;2.00;2.00;;;;;29.50;17.23;98759.66;6198634;28;125900;-72
2021/05/26 13:22:41;;;;;;;;;1.20;1.20;;;;;29.57;16.58;98743.19;6195951;28;125450;-72
2021/05/26 13:25:52;;;;;;;;;2.00;2.00;;;;;29.60;17.17;98744.47;6205055;28;125932;-72
2021/05/26 13:28:57;;;;;;;;;2.00;2.00;;;;;29.38;17.34;98743.00;6207373;28;124037;-72
2021/05/26 13:32:01;;;;;;;;;1.00;1.00;;;;;29.42;18.02;98740.34;6191675;28;128043;-72
2021/05/26 13:35:05;;;;;;;;;1.80;1.80;;;;;29.41;17.12;98731.22;6203133;27;126220;-72
2021/05/26 13:38:09;;;;;;;;;1.00;1.00;;;;;29.44;17.20;98724.94;6205115;28;124842;-72
2021/05/26 13:41:12;;;;;;;;;1.00;1.00;;;;;29.30;16.76;98721.69;6194198;28;123852;-71
2021/05/26 13:44:14;;;;;;;;;3.00;3.00;;;;;29.24;16.61;98714.75;6192962;28;125048;-71
2021/05/26 13:47:18;;;;;;;;;1.20;1.00;;;;;29.09;16.89;98693.25;6207299;28;126516;-71
2021/05/26 13:50:22;;;;;;;;;2.00;2.00;;;;;29.18;16.80;98710.59;6208070;28;125181;-71
2021/05/26 13:53:25;;;;;;;;;2.00;2.00;;;;;29.15;16.32;98712.09;6191232;28;123074;-71
2021/05/26 13:56:28;;;;;;;;;1.00;1.00;;;;;29.16;17.01;98710.97;6206774;28;126368;-71
2021/05/26 13:59:31;;;;;;;;;1.80;1.80;;;;;29.07;17.09;98704.72;6209453;28;126377;-72
2021/05/26 14:02:34;;;;;;;;;1.80;1.40;;;;;29.01;16.88;98703.31;6205094;28;126755;-71
2021/05/26 14:05:38;;;;;;;;;1.00;1.00;;;;;29.10;17.03;98690.13;6207974;28;125627;-72
2021/05/26 14:08:45;;;;;;;;;1.75;1.00;;;;;28.99;17.38;98688.97;6203137;28;124913;-72
2021/05/26 14:11:48;;;;;;;;;1.00;1.00;;;;;28.67;17.39;98678.78;6204290;28;125423;-72
2021/05/26 14:14:51;;;;;;;;;1.40;1.00;;;;;28.62;17.37;98673.47;6197023;28;126680;-72
2021/05/26 14:17:55;;;;;;;;;1.00;1.00;;;;;28.58;17.71;98673.34;6194204;28;126406;-72
2021/05/26 14:20:58;;;;;;;;;1.00;1.00;;;;;28.25;17.68;98670.63;6207741;28;125891;-71